sensor_id;sensor_type;location;lat;lon;timestamp;P1;durP1;ratioP1;P2;durP2;ratioP2
10801;SDS011;5453;50.852;7.102;2022-12-18T00:02:15;14.60;;;4.57;;
10801;SDS011;5453;50.852;7.102;2022-12-18T00:04:47;19.50;;;6.28;;
10801;SDS011;5453;50.852;7.102;2022-12-18T00:07:19;17.50;;;5.60;;
10801;SDS011;5453;50.852;7.102;2022-12-18T00:09:51;15.05;;;5.68;;
10801;SDS011;5453;50.852;7.102;2022-12-18T00:12:25;15.60;;;6.10;;
10801;SDS011;5453;50.852;7.102;2022-12-18T00:14:57;16.08;;;4.97;;
10801;SDS011;5453;50.852;7.102;2022-12-18T00:17:31;17.65;;;5.40;;
10801;SDS011;5453;50.852;7.102;2022-12-18T00:20:04;13.77;;;5.45;;
10801;SDS011;5453;50.852;7.102;2022-12-18T00:22:37;15.18;;;5.38;;
10801;SDS011;5453;50.852;7.102;2022-12-18T00:25:09;14.45;;;5.60;;
10801;SDS011;5453;50.852;7.102;2022-12-18T00:27:42;14.55;;;5.13;;
10801;SDS011;5453;50.852;7.102;2022-12-18T00:30:14;15.50;;;5.43;;
10801;SDS011;5453;50.852;7.102;2022-12-18T00:32:48;11.65;;;5.03;;
10801;SDS011;5453;50.852;7.102;2022-12-18T00:35:20;17.48;;;5.50;;
10801;SDS011;5453;50.852;7.102;2022-12-18T00:37:53;12.77;;;5.05;;
10801;SDS011;5453;50.852;7.102;2022-12-18T00:40:27;17.67;;;7.30;;
10801;SDS011;5453;50.852;7.102;2022-12-18T00:42:59;15.45;;;5.53;;
10801;SDS011;5453;50.852;7.102;2022-12-18T00:45:30;16.17;;;6.00;;
10801;SDS011;5453;50.852;7.102;2022-12-18T00:48:04;15.10;;;5.88;;
10801;SDS011;5453;50.852;7.102;2022-12-18T00:50:37;15.98;;;5.97;;
10801;SDS011;5453;50.852;7.102;2022-12-18T00:53:10;17.08;;;5.63;;
10801;SDS011;5453;50.852;7.102;2022-12-18T00:55:43;14.23;;;5.45;;
10801;SDS011;5453;50.852;7.102;2022-12-18T00:58:16;14.25;;;5.57;;
10801;SDS011;5453;50.852;7.102;2022-12-18T01:00:49;12.45;;;4.75;;
10801;SDS011;5453;50.852;7.102;2022-12-18T01:03:22;15.23;;;5.70;;
10801;SDS011;5453;50.852;7.102;2022-12-18T01:05:56;15.52;;;5.25;;
10801;SDS011;5453;50.852;7.102;2022-12-18T01:08:28;15.43;;;5.38;;
10801;SDS011;5453;50.852;7.102;2022-12-18T01:11:00;13.15;;;4.97;;
10801;SDS011;5453;50.852;7.102;2022-12-18T01:13:39;11.65;;;4.82;;
10801;SDS011;5453;50.852;7.102;2022-12-18T01:16:12;13.98;;;5.40;;
10801;SDS011;5453;50.852;7.102;2022-12-18T01:18:47;11.55;;;4.78;;
10801;SDS011;5453;50.852;7.102;2022-12-18T01:21:23;13.73;;;4.50;;
10801;SDS011;5453;50.852;7.102;2022-12-18T01:23:56;13.93;;;5.18;;
10801;SDS011;5453;50.852;7.102;2022-12-18T01:26:31;16.27;;;5.93;;
10801;SDS011;5453;50.852;7.102;2022-12-18T01:29:04;15.20;;;5.63;;
10801;SDS011;5453;50.852;7.102;2022-12-18T01:31:36;15.68;;;5.18;;
10801;SDS011;5453;50.852;7.102;2022-12-18T01:34:10;16.73;;;5.93;;
10801;SDS011;5453;50.852;7.102;2022-12-18T01:36:42;15.25;;;5.90;;
10801;SDS011;5453;50.852;7.102;2022-12-18T01:39:14;11.55;;;5.10;;
10801;SDS011;5453;50.852;7.102;2022-12-18T01:41:47;18.42;;;5.22;;
10801;SDS011;5453;50.852;7.102;2022-12-18T01:44:51;13.63;;;5.32;;
10801;SDS011;5453;50.852;7.102;2022-12-18T01:47:32;15.75;;;5.13;;
10801;SDS011;5453;50.852;7.102;2022-12-18T01:50:10;19.85;;;5.93;;
10801;SDS011;5453;50.852;7.102;2022-12-18T01:52:51;16.88;;;5.93;;
10801;SDS011;5453;50.852;7.102;2022-12-18T01:55:28;17.75;;;6.40;;
10801;SDS011;5453;50.852;7.102;2022-12-18T01:58:03;13.25;;;5.47;;
10801;SDS011;5453;50.852;7.102;2022-12-18T02:00:36;16.65;;;5.95;;
10801;SDS011;5453;50.852;7.102;2022-12-18T02:03:08;13.18;;;5.10;;
10801;SDS011;5453;50.852;7.102;2022-12-18T02:05:43;16.85;;;6.03;;
10801;SDS011;5453;50.852;7.102;2022-12-18T02:08:21;15.55;;;5.53;;
10801;SDS011;5453;50.852;7.102;2022-12-18T02:11:02;16.70;;;5.70;;
10801;SDS011;5453;50.852;7.102;2022-12-18T02:13:41;17.83;;;6.20;;
10801;SDS011;5453;50.852;7.102;2022-12-18T02:16:21;15.63;;;5.00;;
10801;SDS011;5453;50.852;7.102;2022-12-18T02:19:00;14.63;;;6.40;;
10801;SDS011;5453;50.852;7.102;2022-12-18T02:21:40;16.50;;;5.45;;
10801;SDS011;5453;50.852;7.102;2022-12-18T02:24:26;15.60;;;5.68;;
10801;SDS011;5453;50.852;7.102;2022-12-18T02:27:07;13.65;;;5.20;;
10801;SDS011;5453;50.852;7.102;2022-12-18T02:29:44;15.45;;;5.95;;
10801;SDS011;5453;50.852;7.102;2022-12-18T02:32:24;15.95;;;5.63;;
10801;SDS011;5453;50.852;7.102;2022-12-18T02:34:59;13.63;;;5.70;;
10801;SDS011;5453;50.852;7.102;2022-12-18T02:37:35;13.88;;;5.05;;
10801;SDS011;5453;50.852;7.102;2022-12-18T02:40:11;13.27;;;5.50;;
10801;SDS011;5453;50.852;7.102;2022-12-18T02:42:47;12.38;;;5.00;;
10801;SDS011;5453;50.852;7.102;2022-12-18T02:45:21;14.43;;;5.15;;
10801;SDS011;5453;50.852;7.102;2022-12-18T02:47:56;15.27;;;5.53;;
10801;SDS011;5453;50.852;7.102;2022-12-18T02:50:30;14.43;;;5.45;;
10801;SDS011;5453;50.852;7.102;2022-12-18T02:53:09;19.92;;;5.60;;
10801;SDS011;5453;50.852;7.102;2022-12-18T02:55:53;15.70;;;5.63;;
10801;SDS011;5453;50.852;7.102;2022-12-18T02:58:34;15.98;;;6.20;;
10801;SDS011;5453;50.852;7.102;2022-12-18T03:01:28;11.35;;;5.72;;
10801;SDS011;5453;50.852;7.102;2022-12-18T03:04:07;14.90;;;5.68;;
10801;SDS011;5453;50.852;7.102;2022-12-18T03:06:46;13.98;;;5.40;;
10801;SDS011;5453;50.852;7.102;2022-12-18T03:09:24;16.67;;;6.07;;
10801;SDS011;5453;50.852;7.102;2022-12-18T03:15:01;11.20;;;4.38;;
10801;SDS011;5453;50.852;7.102;2022-12-18T03:17:41;16.98;;;6.03;;
10801;SDS011;5453;50.852;7.102;2022-12-18T03:20:18;11.73;;;4.88;;
10801;SDS011;5453;50.852;7.102;2022-12-18T03:22:53;16.30;;;5.43;;
10801;SDS011;5453;50.852;7.102;2022-12-18T03:25:31;15.57;;;5.93;;
10801;SDS011;5453;50.852;7.102;2022-12-18T03:28:07;17.73;;;6.28;;
10801;SDS011;5453;50.852;7.102;2022-12-18T03:30:47;12.98;;;5.43;;
10801;SDS011;5453;50.852;7.102;2022-12-18T03:33:27;14.48;;;4.85;;
10801;SDS011;5453;50.852;7.102;2022-12-18T03:36:03;13.88;;;5.10;;
10801;SDS011;5453;50.852;7.102;2022-12-18T03:38:36;13.15;;;5.43;;
10801;SDS011;5453;50.852;7.102;2022-12-18T03:41:12;14.38;;;5.55;;
10801;SDS011;5453;50.852;7.102;2022-12-18T03:44:12;15.05;;;5.43;;
10801;SDS011;5453;50.852;7.102;2022-12-18T03:46:53;16.38;;;6.25;;
10801;SDS011;5453;50.852;7.102;2022-12-18T03:49:32;17.38;;;6.15;;
10801;SDS011;5453;50.852;7.102;2022-12-18T03:52:11;16.75;;;6.35;;
10801;SDS011;5453;50.852;7.102;2022-12-18T03:54:49;15.20;;;6.15;;
10801;SDS011;5453;50.852;7.102;2022-12-18T03:57:25;17.88;;;6.05;;
10801;SDS011;5453;50.852;7.102;2022-12-18T04:00:03;18.15;;;5.75;;
10801;SDS011;5453;50.852;7.102;2022-12-18T04:02:54;15.23;;;5.57;;
10801;SDS011;5453;50.852;7.102;2022-12-18T04:05:37;14.48;;;6.43;;
10801;SDS011;5453;50.852;7.102;2022-12-18T04:08:12;17.85;;;6.50;;
10801;SDS011;5453;50.852;7.102;2022-12-18T04:10:52;16.48;;;6.03;;
10801;SDS011;5453;50.852;7.102;2022-12-18T04:13:27;14.88;;;6.28;;
10801;SDS011;5453;50.852;7.102;2022-12-18T04:16:06;21.67;;;7.15;;
10801;SDS011;5453;50.852;7.102;2022-12-18T04:18:45;20.15;;;6.35;;
10801;SDS011;5453;50.852;7.102;2022-12-18T04:21:18;18.63;;;7.32;;
10801;SDS011;5453;50.852;7.102;2022-12-18T04:23:52;18.83;;;6.40;;
10801;SDS011;5453;50.852;7.102;2022-12-18T04:26:26;17.52;;;7.20;;
10801;SDS011;5453;50.852;7.102;2022-12-18T04:29:14;17.50;;;6.88;;
10801;SDS011;5453;50.852;7.102;2022-12-18T04:31:47;16.90;;;6.75;;
10801;SDS011;5453;50.852;7.102;2022-12-18T04:34:21;21.60;;;8.02;;
10801;SDS011;5453;50.852;7.102;2022-12-18T04:36:57;16.27;;;6.78;;
10801;SDS011;5453;50.852;7.102;2022-12-18T04:39:29;17.17;;;7.07;;
10801;SDS011;5453;50.852;7.102;2022-12-18T04:42:09;16.85;;;6.30;;
10801;SDS011;5453;50.852;7.102;2022-12-18T04:44:42;16.42;;;6.68;;
10801;SDS011;5453;50.852;7.102;2022-12-18T04:47:14;15.80;;;6.20;;
10801;SDS011;5453;50.852;7.102;2022-12-18T04:49:48;18.27;;;6.57;;
10801;SDS011;5453;50.852;7.102;2022-12-18T04:52:20;20.40;;;6.70;;
10801;SDS011;5453;50.852;7.102;2022-12-18T04:54:52;17.42;;;6.07;;
10801;SDS011;5453;50.852;7.102;2022-12-18T04:57:24;18.65;;;6.28;;
10801;SDS011;5453;50.852;7.102;2022-12-18T04:59:57;19.65;;;7.10;;
10801;SDS011;5453;50.852;7.102;2022-12-18T05:02:29;16.20;;;6.53;;
10801;SDS011;5453;50.852;7.102;2022-12-18T05:05:03;17.13;;;6.63;;
10801;SDS011;5453;50.852;7.102;2022-12-18T05:07:36;18.02;;;6.90;;
10801;SDS011;5453;50.852;7.102;2022-12-18T05:10:08;15.60;;;6.43;;
10801;SDS011;5453;50.852;7.102;2022-12-18T05:12:41;15.88;;;6.35;;
10801;SDS011;5453;50.852;7.102;2022-12-18T05:15:27;19.58;;;6.85;;
10801;SDS011;5453;50.852;7.102;2022-12-18T05:18:00;17.88;;;6.93;;
10801;SDS011;5453;50.852;7.102;2022-12-18T05:20:35;19.73;;;7.57;;
10801;SDS011;5453;50.852;7.102;2022-12-18T05:23:07;18.02;;;6.85;;
10801;SDS011;5453;50.852;7.102;2022-12-18T05:25:39;15.23;;;6.93;;
10801;SDS011;5453;50.852;7.102;2022-12-18T05:28:11;18.70;;;6.65;;
10801;SDS011;5453;50.852;7.102;2022-12-18T05:30:46;12.85;;;5.75;;
10801;SDS011;5453;50.852;7.102;2022-12-18T05:33:21;18.58;;;7.05;;
10801;SDS011;5453;50.852;7.102;2022-12-18T05:35:57;16.73;;;6.38;;
10801;SDS011;5453;50.852;7.102;2022-12-18T05:38:35;17.95;;;6.93;;
10801;SDS011;5453;50.852;7.102;2022-12-18T05:41:09;19.65;;;7.10;;
10801;SDS011;5453;50.852;7.102;2022-12-18T05:43:41;16.23;;;5.78;;
10801;SDS011;5453;50.852;7.102;2022-12-18T05:46:14;17.17;;;6.05;;
10801;SDS011;5453;50.852;7.102;2022-12-18T05:48:48;16.33;;;6.30;;
10801;SDS011;5453;50.852;7.102;2022-12-18T05:51:22;18.02;;;6.43;;
10801;SDS011;5453;50.852;7.102;2022-12-18T05:53:54;15.55;;;6.03;;
10801;SDS011;5453;50.852;7.102;2022-12-18T05:56:26;17.02;;;7.15;;
10801;SDS011;5453;50.852;7.102;2022-12-18T05:58:59;19.80;;;6.85;;
10801;SDS011;5453;50.852;7.102;2022-12-18T06:01:31;12.65;;;5.43;;
10801;SDS011;5453;50.852;7.102;2022-12-18T06:04:03;17.67;;;6.32;;
10801;SDS011;5453;50.852;7.102;2022-12-18T06:06:37;16.92;;;6.35;;
10801;SDS011;5453;50.852;7.102;2022-12-18T06:09:09;16.05;;;6.20;;
10801;SDS011;5453;50.852;7.102;2022-12-18T06:11:42;17.70;;;6.55;;
10801;SDS011;5453;50.852;7.102;2022-12-18T06:14:14;15.25;;;6.60;;
10801;SDS011;5453;50.852;7.102;2022-12-18T06:16:47;17.20;;;7.65;;
10801;SDS011;5453;50.852;7.102;2022-12-18T06:19:22;19.00;;;7.25;;
10801;SDS011;5453;50.852;7.102;2022-12-18T06:21:56;17.08;;;6.60;;
10801;SDS011;5453;50.852;7.102;2022-12-18T06:24:29;16.58;;;6.43;;
10801;SDS011;5453;50.852;7.102;2022-12-18T06:27:01;19.52;;;7.40;;
10801;SDS011;5453;50.852;7.102;2022-12-18T06:29:33;17.50;;;5.75;;
10801;SDS011;5453;50.852;7.102;2022-12-18T06:32:05;15.90;;;6.47;;
10801;SDS011;5453;50.852;7.102;2022-12-18T06:34:38;15.73;;;5.80;;
10801;SDS011;5453;50.852;7.102;2022-12-18T06:37:11;16.13;;;6.70;;
10801;SDS011;5453;50.852;7.102;2022-12-18T06:39:43;16.75;;;6.05;;
10801;SDS011;5453;50.852;7.102;2022-12-18T06:42:15;18.10;;;6.30;;
10801;SDS011;5453;50.852;7.102;2022-12-18T06:44:47;16.70;;;5.72;;
10801;SDS011;5453;50.852;7.102;2022-12-18T06:47:19;18.42;;;6.07;;
10801;SDS011;5453;50.852;7.102;2022-12-18T06:49:52;16.65;;;5.35;;
10801;SDS011;5453;50.852;7.102;2022-12-18T06:52:25;16.20;;;6.82;;
10801;SDS011;5453;50.852;7.102;2022-12-18T06:54:57;17.70;;;6.47;;
10801;SDS011;5453;50.852;7.102;2022-12-18T06:57:30;20.20;;;7.00;;
10801;SDS011;5453;50.852;7.102;2022-12-18T07:00:03;16.27;;;6.50;;
10801;SDS011;5453;50.852;7.102;2022-12-18T07:02:38;14.38;;;6.18;;
10801;SDS011;5453;50.852;7.102;2022-12-18T07:05:10;13.32;;;5.55;;
10801;SDS011;5453;50.852;7.102;2022-12-18T07:07:44;15.05;;;5.72;;
10801;SDS011;5453;50.852;7.102;2022-12-18T07:10:16;18.58;;;6.90;;
10801;SDS011;5453;50.852;7.102;2022-12-18T07:12:48;21.83;;;7.32;;
10801;SDS011;5453;50.852;7.102;2022-12-18T07:15:20;17.67;;;6.15;;
10801;SDS011;5453;50.852;7.102;2022-12-18T07:17:52;15.52;;;5.95;;
10801;SDS011;5453;50.852;7.102;2022-12-18T07:20:24;17.42;;;6.00;;
10801;SDS011;5453;50.852;7.102;2022-12-18T07:22:57;15.10;;;5.47;;
10801;SDS011;5453;50.852;7.102;2022-12-18T07:25:29;15.35;;;6.55;;
10801;SDS011;5453;50.852;7.102;2022-12-18T07:28:01;15.55;;;6.45;;
10801;SDS011;5453;50.852;7.102;2022-12-18T07:30:36;15.30;;;5.97;;
10801;SDS011;5453;50.852;7.102;2022-12-18T07:33:09;16.73;;;6.88;;
10801;SDS011;5453;50.852;7.102;2022-12-18T07:35:41;20.02;;;7.53;;
10801;SDS011;5453;50.852;7.102;2022-12-18T07:38:14;17.25;;;7.00;;
10801;SDS011;5453;50.852;7.102;2022-12-18T07:40:46;14.43;;;6.15;;
10801;SDS011;5453;50.852;7.102;2022-12-18T07:43:18;14.90;;;7.20;;
10801;SDS011;5453;50.852;7.102;2022-12-18T07:45:51;16.23;;;6.15;;
10801;SDS011;5453;50.852;7.102;2022-12-18T07:48:23;19.52;;;6.53;;
10801;SDS011;5453;50.852;7.102;2022-12-18T07:50:57;14.70;;;6.47;;
10801;SDS011;5453;50.852;7.102;2022-12-18T07:53:31;18.55;;;6.13;;
10801;SDS011;5453;50.852;7.102;2022-12-18T07:56:06;16.75;;;5.85;;
10801;SDS011;5453;50.852;7.102;2022-12-18T07:58:40;16.75;;;5.85;;
10801;SDS011;5453;50.852;7.102;2022-12-18T08:01:13;17.35;;;5.90;;
10801;SDS011;5453;50.852;7.102;2022-12-18T08:03:45;16.10;;;6.43;;
10801;SDS011;5453;50.852;7.102;2022-12-18T08:06:17;16.33;;;5.88;;
10801;SDS011;5453;50.852;7.102;2022-12-18T08:08:51;17.00;;;6.55;;
10801;SDS011;5453;50.852;7.102;2022-12-18T08:11:24;28.88;;;9.40;;
10801;SDS011;5453;50.852;7.102;2022-12-18T08:13:58;20.50;;;7.38;;
10801;SDS011;5453;50.852;7.102;2022-12-18T08:16:31;36.28;;;9.60;;
10801;SDS011;5453;50.852;7.102;2022-12-18T08:19:03;38.70;;;12.85;;
10801;SDS011;5453;50.852;7.102;2022-12-18T08:21:35;38.22;;;14.00;;
10801;SDS011;5453;50.852;7.102;2022-12-18T08:24:17;30.17;;;9.82;;
10801;SDS011;5453;50.852;7.102;2022-12-18T08:26:49;24.15;;;9.68;;
10801;SDS011;5453;50.852;7.102;2022-12-18T08:29:21;20.20;;;7.00;;
10801;SDS011;5453;50.852;7.102;2022-12-18T08:31:53;19.85;;;6.55;;
10801;SDS011;5453;50.852;7.102;2022-12-18T08:34:25;22.27;;;8.23;;
10801;SDS011;5453;50.852;7.102;2022-12-18T08:36:58;17.60;;;6.57;;
10801;SDS011;5453;50.852;7.102;2022-12-18T08:39:32;19.42;;;7.10;;
10801;SDS011;5453;50.852;7.102;2022-12-18T08:42:04;17.83;;;7.72;;
10801;SDS011;5453;50.852;7.102;2022-12-18T08:44:50;20.10;;;7.20;;
10801;SDS011;5453;50.852;7.102;2022-12-18T08:47:22;26.77;;;8.23;;
10801;SDS011;5453;50.852;7.102;2022-12-18T08:49:56;18.17;;;6.90;;
10801;SDS011;5453;50.852;7.102;2022-12-18T08:52:28;19.13;;;7.05;;
10801;SDS011;5453;50.852;7.102;2022-12-18T08:55:01;19.10;;;7.45;;
10801;SDS011;5453;50.852;7.102;2022-12-18T08:57:33;20.73;;;7.70;;
10801;SDS011;5453;50.852;7.102;2022-12-18T09:00:06;17.88;;;8.07;;
10801;SDS011;5453;50.852;7.102;2022-12-18T09:02:39;22.27;;;7.55;;
10801;SDS011;5453;50.852;7.102;2022-12-18T09:05:11;16.40;;;6.57;;
10801;SDS011;5453;50.852;7.102;2022-12-18T09:07:44;18.45;;;7.20;;
10801;SDS011;5453;50.852;7.102;2022-12-18T09:10:18;17.55;;;6.55;;
10801;SDS011;5453;50.852;7.102;2022-12-18T09:12:50;19.88;;;6.55;;
10801;SDS011;5453;50.852;7.102;2022-12-18T09:15:22;17.33;;;7.40;;
10801;SDS011;5453;50.852;7.102;2022-12-18T09:17:54;19.75;;;7.50;;
10801;SDS011;5453;50.852;7.102;2022-12-18T09:20:26;18.20;;;7.28;;
10801;SDS011;5453;50.852;7.102;2022-12-18T09:22:59;20.45;;;8.77;;
10801;SDS011;5453;50.852;7.102;2022-12-18T09:25:33;25.42;;;8.68;;
10801;SDS011;5453;50.852;7.102;2022-12-18T09:28:06;17.50;;;6.72;;
10801;SDS011;5453;50.852;7.102;2022-12-18T09:30:43;16.75;;;7.18;;
10801;SDS011;5453;50.852;7.102;2022-12-18T09:33:17;20.58;;;7.07;;
10801;SDS011;5453;50.852;7.102;2022-12-18T09:35:49;17.80;;;6.30;;
10801;SDS011;5453;50.852;7.102;2022-12-18T09:38:21;21.17;;;7.75;;
10801;SDS011;5453;50.852;7.102;2022-12-18T09:40:56;17.63;;;7.32;;
10801;SDS011;5453;50.852;7.102;2022-12-18T09:43:33;20.17;;;8.10;;
10801;SDS011;5453;50.852;7.102;2022-12-18T09:46:15;20.45;;;7.45;;
10801;SDS011;5453;50.852;7.102;2022-12-18T09:48:50;15.57;;;6.70;;
10801;SDS011;5453;50.852;7.102;2022-12-18T09:51:27;19.15;;;7.63;;
10801;SDS011;5453;50.852;7.102;2022-12-18T09:54:05;21.20;;;7.65;;
10801;SDS011;5453;50.852;7.102;2022-12-18T09:56:45;19.13;;;7.30;;
10801;SDS011;5453;50.852;7.102;2022-12-18T09:59:20;19.63;;;7.20;;
10801;SDS011;5453;50.852;7.102;2022-12-18T10:01:56;18.40;;;8.02;;
10801;SDS011;5453;50.852;7.102;2022-12-18T10:04:28;14.45;;;6.57;;
10801;SDS011;5453;50.852;7.102;2022-12-18T10:07:07;19.88;;;7.80;;
10801;SDS011;5453;50.852;7.102;2022-12-18T10:09:47;17.42;;;7.15;;
10801;SDS011;5453;50.852;7.102;2022-12-18T10:12:28;22.70;;;7.95;;
10801;SDS011;5453;50.852;7.102;2022-12-18T10:15:11;17.20;;;7.20;;
10801;SDS011;5453;50.852;7.102;2022-12-18T10:17:49;21.02;;;7.82;;
10801;SDS011;5453;50.852;7.102;2022-12-18T10:20:29;16.13;;;6.75;;
10801;SDS011;5453;50.852;7.102;2022-12-18T10:23:10;18.67;;;7.28;;
10801;SDS011;5453;50.852;7.102;2022-12-18T10:25:53;18.17;;;7.28;;
10801;SDS011;5453;50.852;7.102;2022-12-18T10:28:33;23.83;;;8.52;;
10801;SDS011;5453;50.852;7.102;2022-12-18T10:31:11;20.40;;;8.73;;
10801;SDS011;5453;50.852;7.102;2022-12-18T10:33:48;23.25;;;8.15;;
10801;SDS011;5453;50.852;7.102;2022-12-18T10:36:20;21.85;;;8.27;;
10801;SDS011;5453;50.852;7.102;2022-12-18T10:38:52;23.10;;;8.93;;
10801;SDS011;5453;50.852;7.102;2022-12-18T10:41:25;18.02;;;7.82;;
10801;SDS011;5453;50.852;7.102;2022-12-18T10:44:14;18.23;;;7.13;;
10801;SDS011;5453;50.852;7.102;2022-12-18T10:46:49;19.95;;;8.05;;
10801;SDS011;5453;50.852;7.102;2022-12-18T10:49:26;18.23;;;7.55;;
10801;SDS011;5453;50.852;7.102;2022-12-18T10:52:06;20.00;;;7.65;;
10801;SDS011;5453;50.852;7.102;2022-12-18T10:54:45;23.42;;;8.73;;
10801;SDS011;5453;50.852;7.102;2022-12-18T10:57:30;20.15;;;8.18;;
10801;SDS011;5453;50.852;7.102;2022-12-18T11:00:26;21.60;;;7.75;;
10801;SDS011;5453;50.852;7.102;2022-12-18T11:03:00;20.42;;;8.27;;
10801;SDS011;5453;50.852;7.102;2022-12-18T11:05:33;17.42;;;7.40;;
10801;SDS011;5453;50.852;7.102;2022-12-18T11:08:07;28.55;;;11.75;;
10801;SDS011;5453;50.852;7.102;2022-12-18T11:10:52;18.83;;;7.22;;
10801;SDS011;5453;50.852;7.102;2022-12-18T11:13:26;18.90;;;7.75;;
10801;SDS011;5453;50.852;7.102;2022-12-18T11:16:02;20.60;;;8.05;;
10801;SDS011;5453;50.852;7.102;2022-12-18T11:18:34;20.80;;;7.68;;
10801;SDS011;5453;50.852;7.102;2022-12-18T11:21:08;16.85;;;7.95;;
10801;SDS011;5453;50.852;7.102;2022-12-18T11:23:44;17.88;;;8.35;;
10801;SDS011;5453;50.852;7.102;2022-12-18T11:26:19;18.95;;;8.45;;
10801;SDS011;5453;50.852;7.102;2022-12-18T11:28:52;20.15;;;7.60;;
10801;SDS011;5453;50.852;7.102;2022-12-18T11:31:41;18.98;;;7.50;;
10801;SDS011;5453;50.852;7.102;2022-12-18T11:34:15;17.20;;;7.10;;
10801;SDS011;5453;50.852;7.102;2022-12-18T11:36:51;19.70;;;7.95;;
10801;SDS011;5453;50.852;7.102;2022-12-18T11:39:24;17.10;;;7.13;;
10801;SDS011;5453;50.852;7.102;2022-12-18T11:42:03;19.60;;;8.65;;
10801;SDS011;5453;50.852;7.102;2022-12-18T11:44:43;22.75;;;8.60;;
10801;SDS011;5453;50.852;7.102;2022-12-18T11:47:21;19.65;;;8.35;;
10801;SDS011;5453;50.852;7.102;2022-12-18T11:49:59;22.42;;;8.40;;
10801;SDS011;5453;50.852;7.102;2022-12-18T11:52:33;20.30;;;7.93;;
10801;SDS011;5453;50.852;7.102;2022-12-18T11:57:45;19.13;;;7.82;;
10801;SDS011;5453;50.852;7.102;2022-12-18T12:00:22;19.75;;;8.25;;
10801;SDS011;5453;50.852;7.102;2022-12-18T12:06:30;19.20;;;7.80;;
10801;SDS011;5453;50.852;7.102;2022-12-18T12:09:12;22.13;;;9.48;;
10801;SDS011;5453;50.852;7.102;2022-12-18T12:11:55;22.05;;;9.02;;
10801;SDS011;5453;50.852;7.102;2022-12-18T12:14:42;20.42;;;8.52;;
10801;SDS011;5453;50.852;7.102;2022-12-18T12:17:30;21.60;;;8.27;;
10801;SDS011;5453;50.852;7.102;2022-12-18T12:20:10;24.27;;;8.98;;
10801;SDS011;5453;50.852;7.102;2022-12-18T12:22:53;23.42;;;8.77;;
10801;SDS011;5453;50.852;7.102;2022-12-18T12:25:33;23.67;;;9.07;;
10801;SDS011;5453;50.852;7.102;2022-12-18T12:28:15;22.52;;;8.52;;
10801;SDS011;5453;50.852;7.102;2022-12-18T12:31:05;21.00;;;7.85;;
10801;SDS011;5453;50.852;7.102;2022-12-18T12:33:50;21.33;;;8.57;;
10801;SDS011;5453;50.852;7.102;2022-12-18T12:36:33;24.33;;;9.02;;
10801;SDS011;5453;50.852;7.102;2022-12-18T12:39:14;21.75;;;8.38;;
10801;SDS011;5453;50.852;7.102;2022-12-18T12:41:51;22.52;;;8.25;;
10801;SDS011;5453;50.852;7.102;2022-12-18T12:44:43;23.00;;;9.07;;
10801;SDS011;5453;50.852;7.102;2022-12-18T12:47:20;21.42;;;7.93;;
10801;SDS011;5453;50.852;7.102;2022-12-18T12:49:57;21.95;;;8.82;;
10801;SDS011;5453;50.852;7.102;2022-12-18T12:52:34;22.27;;;9.25;;
10801;SDS011;5453;50.852;7.102;2022-12-18T12:55:12;20.77;;;8.50;;
10801;SDS011;5453;50.852;7.102;2022-12-18T12:57:51;22.63;;;8.60;;
10801;SDS011;5453;50.852;7.102;2022-12-18T13:00:33;25.50;;;9.40;;
10801;SDS011;5453;50.852;7.102;2022-12-18T13:03:13;23.42;;;8.43;;
10801;SDS011;5453;50.852;7.102;2022-12-18T13:05:56;24.95;;;9.15;;
10801;SDS011;5453;50.852;7.102;2022-12-18T13:08:51;29.23;;;10.10;;
10801;SDS011;5453;50.852;7.102;2022-12-18T13:11:31;24.40;;;10.38;;
10801;SDS011;5453;50.852;7.102;2022-12-18T13:14:28;38.28;;;15.23;;
10801;SDS011;5453;50.852;7.102;2022-12-18T13:17:16;24.20;;;9.93;;
10801;SDS011;5453;50.852;7.102;2022-12-18T13:20:07;26.25;;;10.48;;
10801;SDS011;5453;50.852;7.102;2022-12-18T13:22:43;24.70;;;9.60;;
10801;SDS011;5453;50.852;7.102;2022-12-18T13:25:28;24.90;;;9.05;;
10801;SDS011;5453;50.852;7.102;2022-12-18T13:28:06;31.95;;;11.27;;
10801;SDS011;5453;50.852;7.102;2022-12-18T13:30:46;24.60;;;10.07;;
10801;SDS011;5453;50.852;7.102;2022-12-18T13:36:26;35.67;;;12.80;;
10801;SDS011;5453;50.852;7.102;2022-12-18T13:39:11;26.73;;;10.27;;
10801;SDS011;5453;50.852;7.102;2022-12-18T13:48:32;28.05;;;10.82;;
10801;SDS011;5453;50.852;7.102;2022-12-18T13:51:07;21.58;;;9.07;;
10801;SDS011;5453;50.852;7.102;2022-12-18T13:53:43;24.52;;;9.43;;
10801;SDS011;5453;50.852;7.102;2022-12-18T13:56:22;24.92;;;9.30;;
10801;SDS011;5453;50.852;7.102;2022-12-18T13:59:13;25.30;;;10.88;;
10801;SDS011;5453;50.852;7.102;2022-12-18T14:01:50;23.63;;;9.13;;
10801;SDS011;5453;50.852;7.102;2022-12-18T14:04:26;28.48;;;11.00;;
10801;SDS011;5453;50.852;7.102;2022-12-18T14:07:01;24.40;;;9.70;;
10801;SDS011;5453;50.852;7.102;2022-12-18T14:09:37;31.05;;;11.20;;
10801;SDS011;5453;50.852;7.102;2022-12-18T14:12:17;27.95;;;9.75;;
10801;SDS011;5453;50.852;7.102;2022-12-18T14:15:17;32.03;;;10.63;;
10801;SDS011;5453;50.852;7.102;2022-12-18T14:17:58;23.98;;;9.98;;
10801;SDS011;5453;50.852;7.102;2022-12-18T14:20:33;24.42;;;10.40;;
10801;SDS011;5453;50.852;7.102;2022-12-18T14:23:23;25.02;;;9.93;;
10801;SDS011;5453;50.852;7.102;2022-12-18T14:25:58;26.35;;;10.70;;
10801;SDS011;5453;50.852;7.102;2022-12-18T14:28:31;29.27;;;10.23;;
10801;SDS011;5453;50.852;7.102;2022-12-18T14:31:15;25.83;;;9.82;;
10801;SDS011;5453;50.852;7.102;2022-12-18T14:33:50;28.10;;;10.45;;
10801;SDS011;5453;50.852;7.102;2022-12-18T14:36:24;28.05;;;10.73;;
10801;SDS011;5453;50.852;7.102;2022-12-18T14:38:58;27.73;;;10.55;;
10801;SDS011;5453;50.852;7.102;2022-12-18T14:41:30;27.63;;;10.50;;
10801;SDS011;5453;50.852;7.102;2022-12-18T14:44:05;26.23;;;9.40;;
10801;SDS011;5453;50.852;7.102;2022-12-18T14:46:41;25.27;;;10.50;;
10801;SDS011;5453;50.852;7.102;2022-12-18T14:49:19;31.85;;;11.35;;
10801;SDS011;5453;50.852;7.102;2022-12-18T14:51:56;31.88;;;12.60;;
10801;SDS011;5453;50.852;7.102;2022-12-18T14:54:30;29.17;;;11.50;;
10801;SDS011;5453;50.852;7.102;2022-12-18T14:57:06;27.75;;;11.00;;
10801;SDS011;5453;50.852;7.102;2022-12-18T14:59:52;24.55;;;9.57;;
10801;SDS011;5453;50.852;7.102;2022-12-18T15:02:25;31.08;;;11.27;;
10801;SDS011;5453;50.852;7.102;2022-12-18T15:04:59;30.65;;;11.35;;
10801;SDS011;5453;50.852;7.102;2022-12-18T15:07:39;30.58;;;11.40;;
10801;SDS011;5453;50.852;7.102;2022-12-18T15:10:14;34.55;;;11.10;;
10801;SDS011;5453;50.852;7.102;2022-12-18T15:12:48;30.33;;;10.95;;
10801;SDS011;5453;50.852;7.102;2022-12-18T15:18:18;28.05;;;11.15;;
10801;SDS011;5453;50.852;7.102;2022-12-18T15:20:53;25.52;;;10.65;;
10801;SDS011;5453;50.852;7.102;2022-12-18T15:23:30;29.35;;;11.75;;
10801;SDS011;5453;50.852;7.102;2022-12-18T15:26:08;28.35;;;11.45;;
10801;SDS011;5453;50.852;7.102;2022-12-18T15:28:43;29.85;;;10.98;;
10801;SDS011;5453;50.852;7.102;2022-12-18T15:31:21;29.08;;;10.73;;
10801;SDS011;5453;50.852;7.102;2022-12-18T15:34:05;28.88;;;11.95;;
10801;SDS011;5453;50.852;7.102;2022-12-18T15:36:44;27.63;;;11.15;;
10801;SDS011;5453;50.852;7.102;2022-12-18T15:39:16;28.35;;;11.52;;
10801;SDS011;5453;50.852;7.102;2022-12-18T15:41:48;31.92;;;11.13;;
10801;SDS011;5453;50.852;7.102;2022-12-18T15:44:38;30.05;;;11.93;;
10801;SDS011;5453;50.852;7.102;2022-12-18T15:47:11;31.33;;;11.43;;
10801;SDS011;5453;50.852;7.102;2022-12-18T15:49:45;29.15;;;11.30;;
10801;SDS011;5453;50.852;7.102;2022-12-18T15:52:17;25.80;;;10.82;;
10801;SDS011;5453;50.852;7.102;2022-12-18T15:54:55;30.63;;;11.77;;
10801;SDS011;5453;50.852;7.102;2022-12-18T15:57:45;29.88;;;11.38;;
10801;SDS011;5453;50.852;7.102;2022-12-18T16:00:17;34.03;;;12.35;;
10801;SDS011;5453;50.852;7.102;2022-12-18T16:02:50;32.42;;;11.88;;